Tropical Cyclones
[Index]
Main Index Home Page Stock Weather Photos Extreme Storms Discussion Storm News and Storm Chasing Reports Tropical Cyclones / Hurricanes / Typhoons Weather Data and Links Wild Fires / Bushfires Weather Observation Techniques Weather Picture Catalogue Tornado Pictures and Reports Stock Video Footage and DVDs for sale
Season 2006-2007 Tropical Cyclone GEORGE Track Map
Season 2006-2007 Summaries: [BoM-AU] [JTWC-AU] [JTWC-SIO] [JTWC-SPAC] [JTWC-SH]
<<- Previous TC | JTWC 2006-2007 Season | Next TC ->>

click for intensity scale information  Lat/long Grid: Show Hide

 Date Labels: Show Hide

Joint Typhoon Warning Centre Cyclone Data

Name: GEORGE

28 Feb 2007 06:00 UTC to 10 Mar 2007 00:00 UTC

    date/time    lat    long     hPa   cat  kts
2007-02-28 06   12.1   134.5    1002         25          
2007-02-28 12   12.4   134.5    1002         25          
2007-02-28 18   12.6   134.6    1002         25          
2007-03-01 00   12.9   134.7    1002         25          
2007-03-01 06   13.0   134.4    1002         25          
2007-03-01 12   13.0   134.0    1002         25          
2007-03-01 18   13.0   133.6    1002         25          
2007-03-02 00   13.0   133.1    1002         25          
2007-03-02 06   13.0   132.4    1002         25          
2007-03-02 12   13.1   131.8    1000         25          
2007-03-02 18   13.4   131.2    1000         25          
2007-03-03 00   13.7   130.6     999         25          
2007-03-03 06   14.0   129.9    1000         30          
2007-03-03 12   14.1   129.4     991    1    45          
2007-03-03 18   14.5   129.1     985    1    50          
2007-03-04 00   14.5   128.6     982    2    55          
2007-03-04 00   14.5   128.6     982    2    55          
2007-03-04 06   14.4   127.9     982    2    55          
2007-03-04 06   14.4   127.9     982    2    55          
2007-03-04 12   14.4   127.1     989    1    45          
2007-03-04 18   14.4   126.3     993    1    40          
2007-03-05 00   14.4   125.5     985    1    50          
2007-03-05 06   14.5   124.7     985    1    50          
2007-03-05 12   14.5   124.0     985    1    50          
2007-03-05 18   14.4   123.1     982    2    55          
2007-03-05 18   14.4   123.1     982    2    55          
2007-03-06 00   14.7   122.2     982    2    55          
2007-03-06 00   14.7   122.2     982    2    55          
2007-03-06 06   15.1   121.5     987    1    50          
2007-03-06 12   15.1   120.7     989    1    45          
2007-03-06 18   15.0   120.0     989    1    45          
2007-03-07 00   15.0   119.5     982    2    55          
2007-03-07 00   15.0   119.5     982    2    55          
2007-03-07 06   15.4   119.3     978    2    60          
2007-03-07 06   15.4   119.3     978    2    60          
2007-03-07 12   16.0   119.4     974    2    65          
2007-03-07 12   16.0   119.4     974    2    65          
2007-03-07 18   16.8   119.1     970    2    70          
2007-03-07 18   16.8   119.1     970    2    70          
2007-03-08 00   17.8   119.2     967    3    75          
2007-03-08 00   17.8   119.2     967    3    75          
2007-03-08 00   17.8   119.2     967    3    75          
2007-03-08 06   18.8   119.0     952    3    95          
2007-03-08 06   18.8   119.0     952    3    95          
2007-03-08 06   18.8   119.0     952    3    95          
2007-03-08 12   19.9   119.0     941    4   110          
2007-03-08 12   19.9   119.0     941    4   110          
2007-03-08 12   19.9   119.0     941    4   110          
2007-03-08 18   21.1   118.6     948    4   100          
2007-03-08 18   21.1   118.6     948    4   100          
2007-03-08 18   21.1   118.6     948    4   100          
2007-03-09 00   21.7   118.6     974    2    65          
2007-03-09 00   21.7   118.6     974    2    65          
2007-03-09 00   21.7   118.6     974    2    65          
2007-03-09 06   22.2   119.3     989    1    45          
2007-03-09 12   22.6   120.3     996         35          
2007-03-09 18   23.2   120.9     996         35          
2007-03-10 00   23.7   121.6    1000         30          
Winds are 1-min average.

Tropical cyclone tracks developed by Michael Bath using data from the Joint Typhoon Warning Centre Best Tracks and Google Maps.


[Australian Severe Weather index] [Copyright Notice] [Email Contacts] [Search This Site] [Privacy Policy]
Document: tropical_cyclone_george.htm Updated: 28 June 2017